Time;durP1;ratioP1;P1;durP2;ratioP2;P2;SDS_P1;SDS_P2;PMS_P1;PMS_P2;Temp;Humidity;BMP_temperature;BMP_pressure;BME280_temperature;BME280_humidity;BME280_pressure;Samples;Min_cycle;Max_cycle;Signal;HPM_P1;HPM_P2
2022/05/06 00:00:23;;;;;;;18.80;9.18;;;5.10;99.90;;;;;;5187236;28;20101;-75
2022/05/06 00:02:55;;;;;;;10.13;4.70;;;4.90;99.90;;;;;;5187047;28;20133;-73
2022/05/06 00:05:26;;;;;;;13.35;4.13;;;4.70;99.90;;;;;;5187097;28;20036;-73
2022/05/06 00:07:57;;;;;;;9.82;4.80;;;4.90;99.90;;;;;;5187588;28;20029;-73
2022/05/06 00:10:27;;;;;;;11.10;4.10;;;5.30;99.90;;;;;;5187123;28;20022;-73
2022/05/06 00:12:58;;;;;;;5.60;3.58;;;4.80;99.90;;;;;;5187029;28;20033;-74
2022/05/06 00:15:29;;;;;;;7.00;3.53;;;4.90;99.90;;;;;;5186844;28;20014;-77
2022/05/06 00:18:00;;;;;;;7.22;3.45;;;4.40;99.90;;;;;;5187130;28;20025;-73
2022/05/06 00:20:31;;;;;;;7.10;3.22;;;4.20;99.90;;;;;;5187239;28;20018;-74
2022/05/06 00:23:01;;;;;;;7.72;3.45;;;4.40;99.90;;;;;;5186835;28;20044;-73
2022/05/06 00:25:32;;;;;;;4.28;2.90;;;5.20;99.90;;;;;;5186914;28;20026;-74
2022/05/06 00:28:03;;;;;;;7.75;3.53;;;5.10;99.90;;;;;;5186646;28;20050;-73
2022/05/06 00:30:34;;;;;;;8.38;4.55;;;5.00;99.90;;;;;;5186858;28;20522;-77
2022/05/06 00:33:06;;;;;;;8.32;3.30;;;4.70;99.90;;;;;;5186783;28;20104;-74
2022/05/06 00:35:40;;;;;;;7.72;3.40;;;4.40;99.90;;;;;;5186693;28;20050;-73
2022/05/06 00:38:10;;;;;;;7.53;3.60;;;4.20;99.90;;;;;;5186695;28;20037;-78
2022/05/06 00:40:41;;;;;;;8.70;3.20;;;4.50;99.90;;;;;;5186562;28;20022;-73
2022/05/06 00:43:12;;;;;;;8.82;3.30;;;4.60;99.90;;;;;;5186560;28;20069;-77
2022/05/06 00:45:54;;;;;;;5.63;3.38;;;4.60;99.90;;;;;;5186428;28;20048;-78
2022/05/06 00:48:30;;;;;;;7.60;3.10;;;4.80;99.90;;;;;;5186658;28;20018;-73
2022/05/06 00:51:06;;;;;;;6.90;3.30;;;4.40;99.90;;;;;;5186432;28;20044;-77
2022/05/06 00:53:37;;;;;;;6.78;2.65;;;4.30;99.90;;;;;;5186548;28;20072;-73
2022/05/06 00:56:10;;;;;;;10.20;3.63;;;4.30;99.90;;;;;;5185955;28;20022;-77
2022/05/06 00:58:44;;;;;;;6.97;2.67;;;4.80;99.90;;;;;;5186052;28;20071;-73
2022/05/06 01:01:15;;;;;;;5.20;3.15;;;4.30;99.90;;;;;;5186337;28;20026;-77
2022/05/06 01:03:46;;;;;;;8.85;3.83;;;4.40;99.90;;;;;;5186424;28;20034;-73
2022/05/06 01:06:17;;;;;;;7.72;3.05;;;4.30;99.90;;;;;;5186482;28;20093;-73
2022/05/06 01:08:48;;;;;;;7.63;2.95;;;4.50;99.90;;;;;;5186315;28;20037;-76
2022/05/06 01:11:19;;;;;;;4.45;2.55;;;4.70;99.90;;;;;;5186344;28;20380;-73
2022/05/06 01:13:54;;;;;;;5.60;3.08;;;4.40;99.90;;;;;;5186278;28;20018;-77
2022/05/06 01:16:24;;;;;;;4.82;2.83;;;4.10;99.90;;;;;;5186273;28;20022;-73
2022/05/06 01:18:55;;;;;;;8.30;3.30;;;4.30;99.90;;;;;;5186315;28;20032;-73
2022/05/06 01:21:27;;;;;;;5.70;3.28;;;4.60;99.90;;;;;;5186079;28;20118;-77
2022/05/06 01:23:58;;;;;;;6.45;3.30;;;4.10;99.90;;;;;;5186110;28;20026;-73
2022/05/06 01:27:03;;;;;;;6.55;3.22;;;4.30;99.90;;;;;;5186022;28;20030;-77
2022/05/06 01:29:37;;;;;;;6.63;3.15;;;3.90;99.90;;;;;;5164292;28;20461;-76
2022/05/06 01:32:08;;;;;;;7.07;3.28;;;4.10;99.90;;;;;;5186080;28;20033;-74
2022/05/06 01:34:41;;;;;;;5.72;2.97;;;4.10;99.90;;;;;;5185983;28;20033;-73
2022/05/06 01:37:14;;;;;;;4.55;2.70;;;3.60;99.90;;;;;;5186095;28;20084;-74
2022/05/06 01:39:51;;;;;;;6.10;3.28;;;4.10;99.90;;;;;;5184049;28;20040;-73
2022/05/06 01:42:23;;;;;;;5.05;2.90;;;4.20;99.90;;;;;;5186019;28;20037;-78
2022/05/06 01:45:01;;;;;;;6.13;3.45;;;3.80;99.90;;;;;;5185814;28;20434;-78
2022/05/06 01:47:36;;;;;;;12.77;2.90;;;4.00;99.90;;;;;;5185973;28;20053;-79
2022/05/06 01:50:18;;;;;;;4.68;2.78;;;3.90;99.90;;;;;;5186050;28;20077;-78
2022/05/06 01:52:55;;;;;;;8.13;3.08;;;3.70;99.90;;;;;;5186026;28;20354;-79
2022/05/06 01:55:35;;;;;;;6.40;3.00;;;3.70;99.90;;;;;;5185608;28;20018;-78
2022/05/06 01:58:06;;;;;;;;;;;3.70;99.90;;;;;;5186404;28;20108;-73
2022/05/06 02:00:37;;;;;;;7.78;2.70;;;4.10;99.90;;;;;;5185911;28;19905;-74
2022/05/06 02:05:16;;;;;;;6.97;3.65;;;3.80;99.90;;;;;;5184428;28;20038;-74
2022/05/06 02:05:59;;;;;;;9.38;3.05;;;3.50;99.90;;;;;;5185756;28;20034;-73
2022/05/06 02:08:30;;;;;;;5.85;3.35;;;3.60;99.90;;;;;;5187255;28;20029;-74
2022/05/06 02:11:01;;;;;;;8.15;3.10;;;3.60;99.90;;;;;;5189458;28;20030;-73
2022/05/06 02:13:33;;;;;;;6.72;3.03;;;3.10;99.90;;;;;;5189414;28;20436;-74
2022/05/06 02:16:04;;;;;;;5.82;2.88;;;3.60;99.90;;;;;;5189143;28;20030;-75
2022/05/06 02:18:35;;;;;;;6.85;3.13;;;3.40;99.90;;;;;;5189218;28;20010;-77
2022/05/06 02:21:06;;;;;;;6.88;2.90;;;3.90;99.90;;;;;;5189210;28;20108;-77
2022/05/06 02:23:37;;;;;;;6.43;2.97;;;3.10;99.90;;;;;;5189031;28;20399;-78
2022/05/06 02:26:07;;;;;;;5.47;2.97;;;3.10;99.90;;;;;;5189043;28;20390;-73
2022/05/06 02:28:38;;;;;;;7.97;3.10;;;3.00;99.90;;;;;;5188899;28;20490;-74
2022/05/06 02:33:58;;;;;;;4.25;3.03;;;3.00;99.90;;;;;;5189291;28;20029;-78
2022/05/06 02:36:29;;;;;;;4.78;2.70;;;3.40;99.90;;;;;;5189039;28;20454;-73
2022/05/06 02:39:00;;;;;;;7.07;3.10;;;3.00;99.90;;;;;;5188886;28;20006;-75
2022/05/06 02:41:31;;;;;;;5.20;2.72;;;3.30;99.90;;;;;;5188689;28;20108;-78
2022/05/06 02:44:04;;;;;;;5.75;3.30;;;3.20;99.90;;;;;;5188640;28;20037;-73
2022/05/06 02:46:35;;;;;;;6.13;3.03;;;3.10;99.90;;;;;;5188738;28;20018;-78
2022/05/06 02:49:06;;;;;;;5.28;2.80;;;2.90;99.90;;;;;;5188722;28;20037;-73
2022/05/06 02:51:37;;;;;;;4.80;2.65;;;3.40;99.90;;;;;;5188540;28;20102;-74
2022/05/06 02:54:07;;;;;;;3.60;2.45;;;3.00;99.90;;;;;;5188710;28;20144;-78
2022/05/06 02:56:38;;;;;;;9.25;2.83;;;3.10;99.90;;;;;;5188519;28;20029;-78
2022/05/06 02:59:09;;;;;;;6.15;3.63;;;3.30;99.90;;;;;;5188623;28;20040;-73
2022/05/06 03:01:40;;;;;;;4.93;2.55;;;2.70;99.90;;;;;;5187114;28;20080;-78
2022/05/06 03:04:13;;;;;;;7.93;3.50;;;3.00;99.90;;;;;;5188484;28;20030;-78
2022/05/06 03:06:44;;;;;;;5.97;2.95;;;3.10;99.90;;;;;;5188387;28;20080;-74
2022/05/06 03:09:15;;;;;;;6.70;3.10;;;3.10;99.90;;;;;;5188345;28;20026;-74
2022/05/06 03:11:46;;;;;;;4.57;2.58;;;2.90;99.90;;;;;;5188321;28;20026;-74
2022/05/06 03:14:17;;;;;;;5.70;2.72;;;2.90;99.90;;;;;;5188000;28;20113;-77
2022/05/06 03:16:47;;;;;;;4.38;2.67;;;2.90;99.90;;;;;;5188218;28;20022;-78
2022/05/06 03:19:19;;;;;;;6.78;3.25;;;2.90;99.90;;;;;;5187820;28;20037;-74
2022/05/06 03:21:52;;;;;;;5.30;2.95;;;2.30;99.90;;;;;;5187639;28;20096;-78
2022/05/06 03:24:23;;;;;;;4.88;2.97;;;3.30;99.90;;;;;;5188042;28;20030;-73
2022/05/06 03:26:54;;;;;;;4.55;2.40;;;3.10;99.90;;;;;;5187595;28;20084;-74
2022/05/06 03:29:25;;;;;;;5.32;2.70;;;3.30;99.90;;;;;;5187865;28;20050;-73
2022/05/06 03:31:57;;;;;;;6.30;2.80;;;3.10;99.90;;;;;;5187806;28;20029;-74
2022/05/06 03:34:28;;;;;;;5.97;2.35;;;3.60;99.90;;;;;;5187916;28;20034;-74
2022/05/06 03:36:59;;;;;;;8.63;2.90;;;3.70;99.90;;;;;;5187690;28;20481;-73
2022/05/06 03:39:30;;;;;;;4.70;2.60;;;3.60;99.90;;;;;;5187725;28;20424;-73
2022/05/06 03:42:01;;;;;;;4.82;2.70;;;3.00;99.90;;;;;;5187444;28;20073;-74
2022/05/06 03:44:32;;;;;;;6.57;3.35;;;2.90;99.90;;;;;;5187485;28;20022;-74
2022/05/06 03:47:03;;;;;;;6.18;3.10;;;3.60;99.90;;;;;;5187583;28;20026;-75
2022/05/06 03:49:34;;;;;;;5.63;3.00;;;3.70;99.90;;;;;;5187475;28;20026;-78
2022/05/06 03:52:05;;;;;;;6.53;2.42;;;3.80;99.90;;;;;;5187399;28;20029;-78
2022/05/06 03:54:36;;;;;;;4.72;2.53;;;3.80;99.90;;;;;;5187450;28;20505;-74
2022/05/06 03:57:07;;;;;;;7.80;2.90;;;3.60;99.90;;;;;;5187331;28;20026;-79
2022/05/06 03:59:38;;;;;;;4.95;2.80;;;3.90;99.90;;;;;;5187297;28;20041;-74
2022/05/06 04:02:08;;;;;;;9.80;3.35;;;3.80;99.90;;;;;;5187244;28;20549;-74
2022/05/06 04:04:39;;;;;;;5.20;3.08;;;3.50;99.90;;;;;;5187300;28;20036;-77
2022/05/06 04:07:10;;;;;;;10.63;3.25;;;3.60;99.90;;;;;;5187186;28;20013;-74
2022/05/06 04:09:41;;;;;;;5.88;3.25;;;3.90;99.90;;;;;;5187216;28;20335;-74
2022/05/06 04:12:12;;;;;;;9.35;3.30;;;4.20;99.90;;;;;;5187127;28;20021;-74
2022/05/06 04:14:43;;;;;;;6.55;3.05;;;4.70;99.90;;;;;;5185932;28;20076;-78
2022/05/06 04:17:14;;;;;;;7.70;3.20;;;4.60;99.90;;;;;;5187028;28;20462;-78
2022/05/06 04:25:24;;;;;;;8.65;3.00;;;4.80;99.90;;;;;;5187191;28;20069;-73
2022/05/06 04:27:55;;;;;;;5.32;3.65;;;4.80;99.90;;;;;;5186648;28;20081;-79
2022/05/06 04:30:26;;;;;;;6.53;3.40;;;4.70;99.90;;;;;;5185653;28;20534;-78
2022/05/06 04:32:57;;;;;;;4.70;2.63;;;4.90;99.90;;;;;;5186848;28;20026;-78
2022/05/06 04:35:28;;;;;;;5.45;3.38;;;5.40;99.90;;;;;;5186686;28;20022;-73
2022/05/06 04:37:59;;;;;;;6.97;3.05;;;5.50;99.90;;;;;;5186886;28;20029;-73
2022/05/06 04:40:29;;;;;;;5.28;2.63;;;5.20;99.90;;;;;;5186826;28;20025;-74
2022/05/06 04:43:06;;;;;;;8.40;2.80;;;5.80;99.90;;;;;;5186466;28;20385;-77
2022/05/06 04:45:41;;;;;;;5.35;2.88;;;6.00;99.90;;;;;;5185341;28;20018;-78
2022/05/06 04:48:13;;;;;;;6.93;3.08;;;5.70;99.90;;;;;;5186610;28;20075;-75
2022/05/06 04:50:45;;;;;;;4.43;2.83;;;6.20;99.90;;;;;;5186473;28;20113;-73
2022/05/06 04:53:16;;;;;;;6.78;3.13;;;6.50;99.90;;;;;;5186569;28;20022;-75
2022/05/06 04:55:48;;;;;;;5.70;2.95;;;6.60;99.90;;;;;;5186341;28;20022;-78
2022/05/06 04:58:19;;;;;;;4.53;2.65;;;6.30;99.90;;;;;;5186451;28;20026;-78
2022/05/06 05:00:50;;;;;;;6.22;3.28;;;6.70;99.90;;;;;;5186568;28;20413;-77
2022/05/06 05:03:22;;;;;;;8.68;3.70;;;6.90;99.90;;;;;;5186264;28;20042;-76
2022/05/06 05:05:53;;;;;;;7.70;2.90;;;7.30;99.90;;;;;;5186522;28;20076;-73
2022/05/06 05:08:24;;;;;;;8.05;2.70;;;7.40;99.90;;;;;;5186429;28;20457;-73
2022/05/06 05:11:02;;;;;;;4.68;2.65;;;7.60;99.90;;;;;;5186308;28;20022;-78
2022/05/06 05:13:38;;;;;;;6.18;3.30;;;8.00;99.90;;;;;;5186348;28;20022;-78
2022/05/06 05:16:09;;;;;;;6.53;2.70;;;8.20;99.90;;;;;;5186401;28;20025;-78
2022/05/06 05:18:40;;;;;;;7.53;2.58;;;8.30;99.90;;;;;;5186186;28;20022;-73
2022/05/06 05:21:10;;;;;;;4.97;2.33;;;8.70;99.90;;;;;;5186071;28;20025;-73
2022/05/06 05:23:41;;;;;;;4.28;2.65;;;9.00;99.90;;;;;;5184868;28;20478;-73
2022/05/06 05:26:12;;;;;;;6.78;2.65;;;9.10;99.90;;;;;;5186211;28;20033;-73
2022/05/06 05:28:43;;;;;;;4.55;2.47;;;9.20;99.90;;;;;;5186028;28;20058;-73
2022/05/06 05:31:14;;;;;;;5.00;2.50;;;9.80;99.90;;;;;;5186206;28;20018;-74
2022/05/06 05:33:45;;;;;;;5.75;3.30;;;9.60;99.90;;;;;;5186167;28;20100;-74
2022/05/06 05:36:16;;;;;;;5.55;2.80;;;9.80;99.90;;;;;;5186310;28;20026;-75
2022/05/06 05:38:46;;;;;;;7.03;3.40;;;9.90;99.90;;;;;;5186045;28;20168;-73
2022/05/06 05:41:17;;;;;;;9.23;3.08;;;10.50;99.90;;;;;;5185986;28;20050;-73
2022/05/06 05:49:26;;;;;;;7.63;2.63;;;11.10;99.90;;;;;;5189732;28;20033;-73
2022/05/06 05:51:58;;;;;;;3.60;2.63;;;11.30;99.90;;;;;;5189466;28;20364;-73
2022/05/06 05:54:28;;;;;;;6.43;3.10;;;11.20;99.90;;;;;;5189722;28;20105;-73
2022/05/06 05:56:59;;;;;;;4.10;2.38;;;11.40;99.90;;;;;;5189407;28;20126;-79
2022/05/06 05:59:30;;;;;;;5.43;2.75;;;11.60;99.90;;;;;;5189513;28;20469;-76
2022/05/06 06:02:02;;;;;;;6.57;2.60;;;12.20;99.90;;;;;;5189428;28;20049;-72
2022/05/06 06:04:32;;;;;;;5.93;2.67;;;12.30;99.90;;;;;;5189591;28;20025;-72
2022/05/06 06:07:04;;;;;;;6.72;2.33;;;12.60;99.90;;;;;;5188285;28;20018;-72
2022/05/06 06:09:34;;;;;;;4.47;2.50;;;13.70;99.90;;;;;;5189527;28;20434;-72
2022/05/06 06:12:06;;;;;;;5.57;2.38;;;13.60;99.90;;;;;;5189176;28;20064;-72
2022/05/06 06:14:36;;;;;;;4.28;1.90;;;14.50;99.90;;;;;;5189428;28;20022;-72
2022/05/06 06:17:08;;;;;;;4.80;1.90;;;14.80;99.90;;;;;;5189288;28;20029;-72
2022/05/06 06:19:39;;;;;;;4.00;2.00;;;14.60;99.90;;;;;;5189137;28;20072;-73
2022/05/06 06:22:10;;;;;;;4.97;2.38;;;14.90;99.90;;;;;;5189021;28;20461;-72
2022/05/06 06:24:41;;;;;;;8.48;2.88;;;15.40;99.90;;;;;;5188992;28;20038;-75
2022/05/06 06:27:12;;;;;;;3.40;1.75;;;15.70;99.90;;;;;;5188781;28;20057;-74
2022/05/06 06:29:43;;;;;;;1.63;1.25;;;16.00;99.90;;;;;;5189041;28;20091;-74
2022/05/06 06:32:16;;;;;;;5.20;1.40;;;16.20;99.90;;;;;;5188895;28;20069;-80
2022/05/06 06:34:47;;;;;;;2.05;1.30;;;16.20;99.90;;;;;;5189088;28;20061;-74
2022/05/06 06:37:20;;;;;;;4.55;1.58;;;16.60;99.90;;;;;;5189073;28;20454;-76
2022/05/06 06:39:50;;;;;;;2.03;1.20;;;16.40;99.90;;;;;;5188820;28;20037;-74
2022/05/06 06:42:21;;;;;;;4.30;1.02;;;16.70;99.90;;;;;;5188877;28;20022;-74
2022/05/06 06:44:52;;;;;;;3.10;1.00;;;17.00;99.90;;;;;;5188785;28;20042;-80
2022/05/06 06:47:23;;;;;;;3.70;1.35;;;16.90;99.90;;;;;;5188729;28;20033;-80
2022/05/06 06:49:54;;;;;;;2.90;1.00;;;17.00;96.70;;;;;;5188612;28;20537;-78
2022/05/06 06:52:24;;;;;;;4.82;0.98;;;17.10;90.80;;;;;;5187357;28;20120;-74
2022/05/06 06:54:57;;;;;;;3.13;1.13;;;17.30;95.40;;;;;;5187554;28;20041;-74
2022/05/06 06:57:31;;;;;;;4.38;1.10;;;17.10;97.40;;;;;;5188342;28;20052;-79
2022/05/06 07:00:03;;;;;;;9.45;1.55;;;17.10;88.30;;;;;;5188391;28;20029;-79
2022/05/06 07:02:35;;;;;;;4.53;1.10;;;17.50;85.10;;;;;;5187099;28;20596;-74
2022/05/06 07:05:07;;;;;;;2.90;1.33;;;17.50;84.30;;;;;;5188216;28;20037;-79
2022/05/06 07:13:17;;;;;;;2.80;1.00;;;17.60;81.60;;;;;;5188746;28;20454;-79
2022/05/06 07:15:48;;;;;;;4.03;1.02;;;17.80;77.20;;;;;;5188185;28;20080;-79
2022/05/06 07:18:19;;;;;;;3.33;1.25;;;17.70;75.50;;;;;;5188018;28;20069;-74
2022/05/06 07:20:49;;;;;;;2.88;1.10;;;17.80;82.50;;;;;;5187917;28;20029;-73
2022/05/06 07:23:21;;;;;;;2.38;1.08;;;17.80;79.00;;;;;;5188070;28;20038;-73
2022/05/06 07:25:51;;;;;;;3.42;0.93;;;17.90;74.40;;;;;;5187981;28;20052;-73
2022/05/06 07:28:22;;;;;;;1.73;0.88;;;18.00;76.20;;;;;;5187797;28;20050;-74
2022/05/06 07:30:53;;;;;;;1.30;0.90;;;17.90;74.50;;;;;;5188043;28;20033;-74
2022/05/06 07:33:24;;;;;;;2.17;0.85;;;17.90;76.60;;;;;;5187876;28;20060;-73
2022/05/06 07:35:56;;;;;;;2.42;0.88;;;17.90;77.40;;;;;;5187855;28;20033;-74
2022/05/06 07:38:27;;;;;;;2.17;0.90;;;18.00;78.80;;;;;;5187826;28;20029;-74
2022/05/06 07:40:59;;;;;;;2.38;0.93;;;17.90;75.10;;;;;;5187683;28;20025;-73
2022/05/06 07:43:30;;;;;;;3.33;1.25;;;17.70;71.50;;;;;;5187299;28;20073;-74
2022/05/06 07:46:01;;;;;;;2.33;1.23;;;17.90;74.60;;;;;;5187606;28;20032;-77
2022/05/06 07:48:33;;;;;;;2.38;1.20;;;18.20;78.90;;;;;;5187494;28;20030;-77
2022/05/06 07:51:05;;;;;;;2.00;1.13;;;17.60;72.70;;;;;;5187603;28;20052;-74
2022/05/06 07:53:36;;;;;;;3.17;1.08;;;17.70;79.40;;;;;;5187363;28;20030;-74
2022/05/06 07:56:08;;;;;;;2.35;0.98;;;17.60;83.50;;;;;;5187081;28;20371;-79
2022/05/06 07:58:39;;;;;;;2.50;1.35;;;17.30;81.10;;;;;;5187188;28;20034;-79
2022/05/06 08:01:11;;;;;;;6.43;1.10;;;18.00;73.50;;;;;;5187185;28;20037;-79
2022/05/06 08:06:31;;;;;;;1.47;1.00;;;18.40;70.00;;;;;;5198879;28;20068;-83
2022/05/06 08:09:02;;;;;;;3.13;1.20;;;19.10;69.00;;;;;;5200531;28;20035;-75
2022/05/06 08:11:36;;;;;;;5.07;1.10;;;15.70;92.90;;;;;;5207395;28;20087;-73
2022/05/06 08:14:07;;;;;;;6.72;0.98;;;18.50;74.00;;;;;;5201394;28;20022;-76
2022/05/06 08:16:38;;;;;;;2.58;1.17;;;17.90;79.00;;;;;;5185283;28;20037;-75
2022/05/06 08:19:09;;;;;;;3.17;1.10;;;18.20;81.30;;;;;;5199800;28;20774;-73
2022/05/06 08:21:43;;;;;;;3.47;1.25;;;17.80;82.60;;;;;;5203034;28;20037;-78
2022/05/06 08:24:14;;;;;;;4.75;0.90;;;18.10;84.30;;;;;;5202525;28;20117;-74
2022/05/06 08:26:45;;;;;;;4.13;1.75;;;17.60;78.70;;;;;;5199132;28;20183;-77
2022/05/06 08:29:16;;;;;;;4.05;1.00;;;18.30;76.80;;;;;;5202167;28;20112;-78
2022/05/06 08:31:47;;;;;;;5.15;1.33;;;18.10;80.00;;;;;;5202669;28;20025;-77
2022/05/06 08:34:18;;;;;;;3.83;1.40;;;18.10;79.90;;;;;;5202219;28;20453;-76
2022/05/06 08:36:50;;;;;;;5.45;1.60;;;18.30;89.30;;;;;;5201261;28;20060;-78
2022/05/06 08:39:21;;;;;;;6.55;1.35;;;17.60;77.20;;;;;;5202067;28;20069;-79
2022/05/06 08:41:54;;;;;;;6.40;1.17;;;17.80;79.40;;;;;;5202610;28;20473;-77
2022/05/06 08:52:54;;;;;;;;;;;18.40;73.90;;;;;;5195051;28;20041;-73
2022/05/06 08:55:25;;;;;;;3.53;1.38;;;18.70;75.10;;;;;;5202371;28;19909;-72
2022/05/06 08:58:03;;;;;;;4.10;1.13;;;18.50;76.10;;;;;;5187184;28;20128;-74
2022/05/06 09:00:46;;;;;;;2.10;0.93;;;18.40;74.40;;;;;;5186053;28;20022;-72
2022/05/06 09:03:17;;;;;;;2.20;1.15;;;19.00;75.90;;;;;;5186217;28;20449;-74
2022/05/06 09:05:51;;;;;;;3.92;1.38;;;19.20;79.80;;;;;;5186170;28;20057;-73
2022/05/06 09:08:53;;;;;;;6.03;1.10;;;19.00;83.80;;;;;;5189994;28;20033;-73
2022/05/06 09:16:39;;;;;;;3.55;1.20;;;18.80;75.90;;;;;;5187476;28;20458;-79
2022/05/06 09:17:20;;;;;;;3.28;1.15;;;18.60;75.10;;;;;;5206630;28;20026;-72
2022/05/06 09:19:55;;;;;;;2.95;1.23;;;18.60;74.10;;;;;;5209140;28;20093;-72
2022/05/06 09:22:33;;;;;;;1.95;1.00;;;18.90;75.20;;;;;;5199192;28;20132;-80
2022/05/06 09:25:04;;;;;;;3.85;1.13;;;18.60;74.80;;;;;;5198208;28;20029;-78
2022/05/06 09:27:35;;;;;;;3.38;1.60;;;18.90;75.60;;;;;;5189907;28;20046;-72
2022/05/06 09:30:09;;;;;;;8.68;1.30;;;18.70;74.60;;;;;;5190938;28;20030;-73
2022/05/06 09:32:41;;;;;;;3.53;1.15;;;18.30;74.20;;;;;;5210644;28;20056;-76
2022/05/06 09:35:14;;;;;;;3.60;1.30;;;18.70;77.60;;;;;;5208771;28;20029;-73
2022/05/06 09:37:50;;;;;;;3.75;1.08;;;18.80;77.80;;;;;;5205204;28;20025;-77
2022/05/06 09:40:32;;;;;;;3.15;1.10;;;19.30;80.60;;;;;;5203930;28;20033;-75
2022/05/06 09:43:02;;;;;;;5.50;1.42;;;18.80;83.50;;;;;;5189969;28;20034;-72
2022/05/06 09:45:37;;;;;;;2.65;1.20;;;18.30;84.80;;;;;;5200672;28;20028;-72
2022/05/06 09:48:13;;;;;;;2.47;1.25;;;19.10;86.00;;;;;;5209235;28;20048;-75
2022/05/06 09:50:46;;;;;;;3.17;1.23;;;18.80;89.20;;;;;;5210133;28;20537;-72
2022/05/06 09:53:19;;;;;;;4.45;1.67;;;18.80;90.10;;;;;;5202658;28;20029;-72
2022/05/06 09:55:50;;;;;;;2.58;1.40;;;18.90;90.70;;;;;;5201418;28;20386;-75
2022/05/06 09:58:21;;;;;;;8.57;1.48;;;18.90;90.30;;;;;;5200929;28;20378;-75
2022/05/06 10:00:52;;;;;;;4.00;1.20;;;18.60;91.10;;;;;;5189592;28;20371;-73
2022/05/06 10:03:23;;;;;;;7.90;1.52;;;19.20;99.90;;;;;;5189435;28;20036;-74
2022/05/06 10:05:55;;;;;;;3.38;1.45;;;18.70;97.60;;;;;;5188480;28;20018;-74
2022/05/06 10:08:27;;;;;;;3.80;1.38;;;18.60;99.90;;;;;;5189456;28;20041;-74
2022/05/06 10:11:01;;;;;;;9.35;1.48;;;19.20;99.90;;;;;;5189314;28;20046;-74
2022/05/06 10:13:34;;;;;;;3.58;1.63;;;19.00;99.90;;;;;;5195787;28;20579;-77
2022/05/06 10:16:05;;;;;;;4.72;1.60;;;19.40;99.90;;;;;;5200866;28;20401;-76
2022/05/06 10:18:38;;;;;;;2.72;1.50;;;19.20;99.90;;;;;;5189190;28;20029;-76
2022/05/06 10:21:10;;;;;;;8.30;1.95;;;19.50;99.90;;;;;;5200651;28;20087;-76
2022/05/06 10:23:54;;;;;;;5.70;1.88;;;19.20;99.90;;;;;;5194785;28;20367;-75
2022/05/06 10:26:37;;;;;;;4.22;1.90;;;18.90;99.90;;;;;;5197001;28;20018;-77
2022/05/06 10:32:28;;;;;;;5.20;2.60;;;19.40;99.90;;;;;;5190436;28;20092;-75
2022/05/06 10:35:02;;;;;;;5.55;2.53;;;18.30;99.90;;;;;;5206390;28;20031;-77
2022/05/06 10:37:46;;;;;;;5.80;2.85;;;18.70;99.90;;;;;;5191067;28;20061;-75
2022/05/06 10:40:35;;;;;;;3.10;2.10;;;19.10;99.90;;;;;;5188961;28;20026;-77
2022/05/06 10:43:06;;;;;;;8.18;1.95;;;17.70;99.90;;;;;;5192406;28;20118;-74
2022/05/06 10:45:46;;;;;;;5.65;2.40;;;18.90;99.90;;;;;;5208400;28;20133;-74
2022/05/06 10:48:18;;;;;;;3.63;2.28;;;18.90;99.90;;;;;;5195998;28;20029;-75
2022/05/06 10:50:49;;;;;;;4.68;2.00;;;19.50;99.90;;;;;;5188348;28;20482;-77
2022/05/06 10:53:33;;;;;;;3.75;2.00;;;20.40;99.90;;;;;;5204651;28;20104;-76
2022/05/06 10:56:04;;;;;;;3.72;2.08;;;18.70;99.90;;;;;;5188211;28;20026;-76
2022/05/06 10:58:34;;;;;;;5.43;2.00;;;18.90;99.90;;;;;;5206178;28;20037;-76
2022/05/06 11:01:05;;;;;;;7.47;1.92;;;18.90;99.90;;;;;;5191844;28;20073;-76
2022/05/06 11:03:37;;;;;;;6.13;2.40;;;19.00;99.90;;;;;;5208915;28;20064;-74
2022/05/06 11:06:08;;;;;;;7.13;2.28;;;19.20;99.90;;;;;;5195842;28;20030;-74
2022/05/06 11:08:39;;;;;;;4.60;2.67;;;19.20;99.90;;;;;;5195497;28;20152;-74
2022/05/06 11:11:18;;;;;;;7.97;2.70;;;19.10;99.90;;;;;;5208582;28;20439;-74
2022/05/06 11:13:51;;;;;;;7.45;2.95;;;19.00;99.90;;;;;;5208909;28;20405;-75
2022/05/06 11:16:22;;;;;;;6.18;2.35;;;19.50;99.90;;;;;;5208650;28;20025;-76
2022/05/06 11:18:53;;;;;;;3.45;1.98;;;19.20;99.90;;;;;;5202937;28;20105;-75
2022/05/06 11:21:31;;;;;;;7.97;2.63;;;18.80;99.90;;;;;;5202276;28;20058;-76
2022/05/06 11:24:22;;;;;;;3.83;2.00;;;19.30;99.90;;;;;;5187750;28;20472;-73
2022/05/06 11:26:53;;;;;;;8.18;2.40;;;19.30;99.90;;;;;;5200959;28;20037;-76
2022/05/06 11:29:24;;;;;;;5.00;2.50;;;19.50;99.90;;;;;;5208332;28;20547;-74
2022/05/06 11:31:55;;;;;;;6.80;2.40;;;19.50;99.90;;;;;;5207713;28;20021;-75
2022/05/06 11:34:26;;;;;;;7.05;2.50;;;19.80;99.90;;;;;;5208330;28;20033;-75
2022/05/06 11:36:59;;;;;;;4.13;2.85;;;19.90;99.90;;;;;;5208352;28;20029;-75
2022/05/06 11:39:32;;;;;;;7.18;2.60;;;19.20;99.90;;;;;;5200142;28;20021;-75
2022/05/06 11:42:21;;;;;;;6.63;2.83;;;19.60;99.90;;;;;;5207373;28;20032;-74
2022/05/06 11:47:48;;;;;;;6.57;3.22;;;19.90;99.90;;;;;;5207141;28;20036;-74
2022/05/06 11:50:19;;;;;;;5.68;2.80;;;19.50;99.90;;;;;;5207376;28;20025;-74
2022/05/06 11:52:50;;;;;;;5.55;2.72;;;19.20;99.90;;;;;;5207275;28;20048;-74
2022/05/06 11:55:21;;;;;;;4.20;2.83;;;18.80;99.90;;;;;;5204237;28;20022;-72
2022/05/06 11:57:52;;;;;;;5.00;2.85;;;19.40;99.90;;;;;;5191434;28;20045;-73
2022/05/06 12:00:25;;;;;;;14.85;3.15;;;19.10;99.90;;;;;;5197099;28;20470;-75
2022/05/06 12:02:56;;;;;;;10.13;3.00;;;19.10;99.90;;;;;;5193955;28;20029;-73
2022/05/06 12:05:26;;;;;;;8.52;2.83;;;18.90;99.90;;;;;;5194538;28;20026;-74
2022/05/06 12:07:57;;;;;;;4.72;2.38;;;19.20;99.90;;;;;;5187406;28;20032;-73
2022/05/06 12:10:34;;;;;;;7.43;2.92;;;19.30;99.90;;;;;;5206322;28;20497;-74
2022/05/06 12:13:07;;;;;;;6.50;3.00;;;18.30;99.90;;;;;;5187551;28;20029;-74
2022/05/06 12:15:47;;;;;;;10.75;3.35;;;18.80;99.90;;;;;;5189068;28;20030;-74
2022/05/06 12:18:22;;;;;;;6.20;3.40;;;19.20;99.90;;;;;;5207084;28;20029;-73
2022/05/06 12:20:53;;;;;;;6.60;3.15;;;19.40;99.90;;;;;;5207107;28;20033;-74
2022/05/06 12:23:29;;;;;;;7.97;3.67;;;19.50;99.90;;;;;;5207005;28;20099;-74
2022/05/06 12:25:59;;;;;;;8.55;3.58;;;19.70;99.90;;;;;;5201112;28;20033;-75
2022/05/06 12:28:31;;;;;;;6.85;3.20;;;20.00;99.90;;;;;;5201719;28;20049;-75
2022/05/06 12:31:03;;;;;;;10.07;3.53;;;18.90;99.90;;;;;;5199955;28;20377;-75
2022/05/06 12:33:37;;;;;;;7.93;2.92;;;19.60;99.90;;;;;;5197847;28;20392;-75
2022/05/06 12:36:08;;;;;;;7.47;3.30;;;18.90;99.90;;;;;;5200068;28;20878;-75
2022/05/06 12:38:39;;;;;;;7.97;3.55;;;19.20;99.90;;;;;;5203950;28;20025;-74
2022/05/06 12:41:27;;;;;;;9.50;3.72;;;19.10;99.90;;;;;;5197537;28;20421;-75
2022/05/06 12:44:24;;;;;;;7.45;3.67;;;18.30;99.90;;;;;;5205098;28;20508;-74
2022/05/06 12:47:12;;;;;;;8.25;3.67;;;18.60;99.90;;;;;;5205678;28;20124;-75
2022/05/06 12:49:42;;;;;;;7.85;3.65;;;18.90;99.90;;;;;;5201888;28;20025;-75
2022/05/06 12:52:13;;;;;;;4.68;3.10;;;18.80;99.90;;;;;;5203837;28;20021;-75
2022/05/06 12:54:44;;;;;;;11.38;3.53;;;18.90;99.90;;;;;;5199739;28;20022;-76
2022/05/06 12:57:17;;;;;;;4.88;2.92;;;18.70;99.90;;;;;;5204026;28;20030;-75
2022/05/06 12:59:48;;;;;;;7.75;3.30;;;19.30;99.90;;;;;;5204360;28;20033;-75
2022/05/06 13:02:19;;;;;;;9.55;3.35;;;19.10;99.90;;;;;;5203568;28;20028;-74
2022/05/06 13:04:50;;;;;;;5.65;2.92;;;18.90;99.90;;;;;;5206144;28;20496;-74
2022/05/06 13:07:21;;;;;;;4.63;2.63;;;18.70;99.90;;;;;;5205727;28;20028;-74
2022/05/06 13:09:52;;;;;;;7.25;2.90;;;19.40;99.90;;;;;;5204267;28;20025;-74
2022/05/06 13:12:23;;;;;;;6.18;2.80;;;18.40;99.90;;;;;;5205634;28;20018;-74
2022/05/06 13:14:53;;;;;;;5.95;2.40;;;19.10;99.90;;;;;;5221258;28;20036;-73
2022/05/06 13:17:24;;;;;;;4.45;2.13;;;18.40;99.90;;;;;;5205811;28;20108;-74
2022/05/06 13:19:55;;;;;;;6.15;2.58;;;18.40;99.90;;;;;;5204611;28;20033;-74
2022/05/06 13:22:26;;;;;;;6.40;2.35;;;18.70;99.90;;;;;;5205783;28;20060;-73
2022/05/06 13:24:57;;;;;;;5.05;2.53;;;18.30;99.90;;;;;;5205792;28;20103;-74
2022/05/06 13:27:27;;;;;;;6.95;2.35;;;17.80;99.90;;;;;;5202612;28;20069;-74
2022/05/06 13:30:00;;;;;;;5.57;2.45;;;18.30;99.90;;;;;;5203732;28;20053;-74
2022/05/06 13:32:31;;;;;;;6.72;2.75;;;18.30;99.90;;;;;;5204621;28;20127;-74
2022/05/06 13:35:03;;;;;;;5.32;2.53;;;18.00;99.90;;;;;;5205873;28;20018;-74
2022/05/06 13:37:33;;;;;;;6.05;2.50;;;17.80;99.90;;;;;;5204804;28;20103;-74
2022/05/06 13:40:05;;;;;;;3.75;2.55;;;17.30;99.90;;;;;;5197532;28;20049;-73
2022/05/06 13:42:36;;;;;;;7.88;3.03;;;17.80;99.90;;;;;;5203784;28;20386;-73
2022/05/06 13:45:07;;;;;;;7.68;3.58;;;17.70;99.90;;;;;;5194669;28;20022;-74
2022/05/06 13:47:38;;;;;;;5.85;2.65;;;18.40;99.90;;;;;;5205843;28;20104;-74
2022/05/06 13:50:09;;;;;;;5.68;3.05;;;17.80;99.90;;;;;;5203609;28;20052;-75
2022/05/06 13:52:40;;;;;;;5.88;3.08;;;17.70;99.90;;;;;;5197216;28;20037;-76
2022/05/06 13:55:11;;;;;;;8.43;3.28;;;17.50;99.90;;;;;;5200361;28;20026;-74
2022/05/06 14:00:32;;;;;;;5.95;3.70;;;17.00;99.90;;;;;;5206421;28;20088;-75